West Mystic, Connecticut
Current Conditions -  °F | °C
As of 2:56 PM on Sunday 23 Nov 2014 (Local Time) from KGON Reporting Station
Haze Haze  
Wind Chill: 50°   Ceiling: Unl
Heat Index: 50°   Visibility: 5mi
Dew Point: 37°   Wind: 7mph
Humidity: 61%   Direction: 230°SW
Pressure: 30.15"   Gusts: NA
Location:  41.35°N, 71.98°W
Report Text: KGON 231956Z 23006KT 5SM HZ CLR 10/03 A3015 RMK AO2 SLP210 T01000028
Loading
Personal Weather Stations






























Interactive Weather Map New forecast layout! Learn more

10-Day Weather Forecast

Advertisements
Track Severe Weather on mobile